sensor_id;sensor_type;location;lat;lon;timestamp;P1;durP1;ratioP1;P2;durP2;ratioP2
40198;SDS011;25906;43.536;26.068;2023-05-07T00:01:20;7.80;;;3.70;;
40198;SDS011;25906;43.536;26.068;2023-05-07T00:06:52;6.60;;;3.07;;
40198;SDS011;25906;43.536;26.068;2023-05-07T00:09:37;6.07;;;3.40;;
40198;SDS011;25906;43.536;26.068;2023-05-07T00:12:23;8.48;;;3.47;;
40198;SDS011;25906;43.536;26.068;2023-05-07T00:15:08;6.55;;;3.53;;
40198;SDS011;25906;43.536;26.068;2023-05-07T00:17:55;5.40;;;3.58;;
40198;SDS011;25906;43.536;26.068;2023-05-07T00:23:25;8.60;;;4.07;;
40198;SDS011;25906;43.536;26.068;2023-05-07T00:26:11;6.55;;;3.50;;
40198;SDS011;25906;43.536;26.068;2023-05-07T00:28:56;6.18;;;3.47;;
40198;SDS011;25906;43.536;26.068;2023-05-07T00:31:41;9.48;;;4.57;;
40198;SDS011;25906;43.536;26.068;2023-05-07T00:34:27;5.75;;;3.42;;
40198;SDS011;25906;43.536;26.068;2023-05-07T00:37:12;6.93;;;3.67;;
40198;SDS011;25906;43.536;26.068;2023-05-07T00:39:58;6.18;;;3.78;;
40198;SDS011;25906;43.536;26.068;2023-05-07T00:42:44;10.95;;;4.05;;
40198;SDS011;25906;43.536;26.068;2023-05-07T00:45:32;10.05;;;4.00;;
40198;SDS011;25906;43.536;26.068;2023-05-07T00:48:18;8.30;;;3.50;;
40198;SDS011;25906;43.536;26.068;2023-05-07T00:51:03;4.60;;;3.67;;
40198;SDS011;25906;43.536;26.068;2023-05-07T00:53:49;5.68;;;3.30;;
40198;SDS011;25906;43.536;26.068;2023-05-07T00:56:35;6.95;;;3.00;;
40198;SDS011;25906;43.536;26.068;2023-05-07T00:59:21;4.60;;;3.33;;
40198;SDS011;25906;43.536;26.068;2023-05-07T01:02:06;9.80;;;3.70;;
40198;SDS011;25906;43.536;26.068;2023-05-07T01:04:52;8.80;;;3.10;;
40198;SDS011;25906;43.536;26.068;2023-05-07T01:07:38;6.95;;;3.60;;
40198;SDS011;25906;43.536;26.068;2023-05-07T01:10:25;8.32;;;3.55;;
40198;SDS011;25906;43.536;26.068;2023-05-07T01:13:12;4.65;;;3.40;;
40198;SDS011;25906;43.536;26.068;2023-05-07T01:15:58;4.10;;;3.10;;
40198;SDS011;25906;43.536;26.068;2023-05-07T01:18:44;12.38;;;3.88;;
40198;SDS011;25906;43.536;26.068;2023-05-07T01:21:33;6.05;;;3.58;;
40198;SDS011;25906;43.536;26.068;2023-05-07T01:24:19;5.72;;;3.20;;
40198;SDS011;25906;43.536;26.068;2023-05-07T01:27:05;10.35;;;4.28;;
40198;SDS011;25906;43.536;26.068;2023-05-07T01:29:51;6.30;;;3.88;;
40198;SDS011;25906;43.536;26.068;2023-05-07T01:35:37;6.13;;;3.70;;
40198;SDS011;25906;43.536;26.068;2023-05-07T01:38:25;8.13;;;4.32;;
40198;SDS011;25906;43.536;26.068;2023-05-07T01:41:12;4.82;;;3.25;;
40198;SDS011;25906;43.536;26.068;2023-05-07T01:46:44;6.50;;;3.47;;
40198;SDS011;25906;43.536;26.068;2023-05-07T01:52:15;5.25;;;3.63;;
40198;SDS011;25906;43.536;26.068;2023-05-07T01:55:01;6.18;;;4.10;;
40198;SDS011;25906;43.536;26.068;2023-05-07T01:57:46;6.72;;;4.05;;
40198;SDS011;25906;43.536;26.068;2023-05-07T02:00:31;10.38;;;4.03;;
40198;SDS011;25906;43.536;26.068;2023-05-07T02:03:17;6.70;;;3.15;;
40198;SDS011;25906;43.536;26.068;2023-05-07T02:06:03;5.65;;;3.47;;
40198;SDS011;25906;43.536;26.068;2023-05-07T02:08:48;6.72;;;3.70;;
40198;SDS011;25906;43.536;26.068;2023-05-07T02:11:33;4.80;;;3.38;;
40198;SDS011;25906;43.536;26.068;2023-05-07T02:14:19;6.50;;;3.85;;
40198;SDS011;25906;43.536;26.068;2023-05-07T02:17:05;5.05;;;3.97;;
40198;SDS011;25906;43.536;26.068;2023-05-07T02:19:51;5.50;;;3.13;;
40198;SDS011;25906;43.536;26.068;2023-05-07T02:22:36;5.97;;;3.50;;
40198;SDS011;25906;43.536;26.068;2023-05-07T02:25:21;5.55;;;3.58;;
40198;SDS011;25906;43.536;26.068;2023-05-07T02:28:07;6.63;;;3.60;;
40198;SDS011;25906;43.536;26.068;2023-05-07T02:30:52;5.50;;;3.53;;
40198;SDS011;25906;43.536;26.068;2023-05-07T02:33:38;6.70;;;3.50;;
40198;SDS011;25906;43.536;26.068;2023-05-07T02:36:23;5.03;;;3.38;;
40198;SDS011;25906;43.536;26.068;2023-05-07T02:39:08;4.72;;;3.13;;
40198;SDS011;25906;43.536;26.068;2023-05-07T02:41:54;6.07;;;3.53;;
40198;SDS011;25906;43.536;26.068;2023-05-07T02:44:39;5.97;;;3.30;;
40198;SDS011;25906;43.536;26.068;2023-05-07T02:47:25;7.05;;;3.15;;
40198;SDS011;25906;43.536;26.068;2023-05-07T02:50:12;4.10;;;3.03;;
40198;SDS011;25906;43.536;26.068;2023-05-07T02:52:58;5.03;;;3.00;;
40198;SDS011;25906;43.536;26.068;2023-05-07T02:55:43;5.07;;;3.53;;
40198;SDS011;25906;43.536;26.068;2023-05-07T02:58:29;4.25;;;2.90;;
40198;SDS011;25906;43.536;26.068;2023-05-07T03:01:14;10.55;;;3.28;;
40198;SDS011;25906;43.536;26.068;2023-05-07T03:04:00;4.47;;;3.00;;
40198;SDS011;25906;43.536;26.068;2023-05-07T03:06:45;4.50;;;3.08;;
40198;SDS011;25906;43.536;26.068;2023-05-07T03:09:31;4.03;;;2.97;;
40198;SDS011;25906;43.536;26.068;2023-05-07T03:12:16;4.57;;;3.35;;
40198;SDS011;25906;43.536;26.068;2023-05-07T03:15:01;6.03;;;2.97;;
40198;SDS011;25906;43.536;26.068;2023-05-07T03:17:47;5.00;;;3.10;;
40198;SDS011;25906;43.536;26.068;2023-05-07T03:23:18;4.63;;;3.35;;
40198;SDS011;25906;43.536;26.068;2023-05-07T03:26:04;5.85;;;2.97;;
40198;SDS011;25906;43.536;26.068;2023-05-07T03:28:49;6.50;;;3.20;;
40198;SDS011;25906;43.536;26.068;2023-05-07T03:31:35;8.68;;;3.65;;
40198;SDS011;25906;43.536;26.068;2023-05-07T03:34:20;6.75;;;3.60;;
40198;SDS011;25906;43.536;26.068;2023-05-07T03:37:07;7.57;;;3.20;;
40198;SDS011;25906;43.536;26.068;2023-05-07T03:39:52;4.40;;;3.05;;
40198;SDS011;25906;43.536;26.068;2023-05-07T03:42:37;16.67;;;4.28;;
40198;SDS011;25906;43.536;26.068;2023-05-07T03:45:23;5.28;;;3.70;;
40198;SDS011;25906;43.536;26.068;2023-05-07T03:48:08;5.40;;;3.13;;
40198;SDS011;25906;43.536;26.068;2023-05-07T03:50:55;7.38;;;3.22;;
40198;SDS011;25906;43.536;26.068;2023-05-07T03:53:42;4.57;;;2.97;;
40198;SDS011;25906;43.536;26.068;2023-05-07T03:56:27;6.65;;;2.85;;
40198;SDS011;25906;43.536;26.068;2023-05-07T03:59:13;4.47;;;2.55;;
40198;SDS011;25906;43.536;26.068;2023-05-07T04:01:58;5.13;;;2.72;;
40198;SDS011;25906;43.536;26.068;2023-05-07T04:04:44;5.15;;;2.80;;
40198;SDS011;25906;43.536;26.068;2023-05-07T04:07:29;4.03;;;2.30;;
40198;SDS011;25906;43.536;26.068;2023-05-07T04:10:15;3.38;;;2.15;;
40198;SDS011;25906;43.536;26.068;2023-05-07T04:13:00;2.63;;;1.70;;
40198;SDS011;25906;43.536;26.068;2023-05-07T04:15:46;6.97;;;2.00;;
40198;SDS011;25906;43.536;26.068;2023-05-07T04:18:31;3.05;;;2.00;;
40198;SDS011;25906;43.536;26.068;2023-05-07T04:21:20;7.35;;;2.05;;
40198;SDS011;25906;43.536;26.068;2023-05-07T04:24:06;4.40;;;2.28;;
40198;SDS011;25906;43.536;26.068;2023-05-07T04:26:51;3.83;;;2.22;;
40198;SDS011;25906;43.536;26.068;2023-05-07T04:29:37;5.07;;;3.72;;
40198;SDS011;25906;43.536;26.068;2023-05-07T04:32:27;9.32;;;3.85;;
40198;SDS011;25906;43.536;26.068;2023-05-07T04:35:14;7.50;;;3.72;;
40198;SDS011;25906;43.536;26.068;2023-05-07T04:37:59;2.92;;;2.42;;
40198;SDS011;25906;43.536;26.068;2023-05-07T04:40:44;2.25;;;2.05;;
40198;SDS011;25906;43.536;26.068;2023-05-07T04:43:31;4.57;;;2.00;;
40198;SDS011;25906;43.536;26.068;2023-05-07T04:46:16;3.92;;;1.90;;
40198;SDS011;25906;43.536;26.068;2023-05-07T04:49:02;2.53;;;1.67;;
40198;SDS011;25906;43.536;26.068;2023-05-07T04:51:48;2.65;;;1.80;;
40198;SDS011;25906;43.536;26.068;2023-05-07T04:54:33;3.13;;;1.70;;
40198;SDS011;25906;43.536;26.068;2023-05-07T04:57:19;4.40;;;1.90;;
40198;SDS011;25906;43.536;26.068;2023-05-07T05:00:04;7.00;;;1.65;;
40198;SDS011;25906;43.536;26.068;2023-05-07T05:02:50;3.63;;;1.77;;
40198;SDS011;25906;43.536;26.068;2023-05-07T05:05:36;4.03;;;2.05;;
40198;SDS011;25906;43.536;26.068;2023-05-07T05:08:21;4.25;;;2.00;;
40198;SDS011;25906;43.536;26.068;2023-05-07T05:11:06;3.90;;;2.08;;
40198;SDS011;25906;43.536;26.068;2023-05-07T05:13:52;4.03;;;2.50;;
40198;SDS011;25906;43.536;26.068;2023-05-07T05:16:37;7.82;;;2.15;;
40198;SDS011;25906;43.536;26.068;2023-05-07T05:19:22;4.43;;;2.00;;
40198;SDS011;25906;43.536;26.068;2023-05-07T05:22:08;4.38;;;1.70;;
40198;SDS011;25906;43.536;26.068;2023-05-07T05:24:53;6.05;;;2.53;;
40198;SDS011;25906;43.536;26.068;2023-05-07T05:27:38;7.85;;;2.50;;
40198;SDS011;25906;43.536;26.068;2023-05-07T05:30:24;7.95;;;2.75;;
40198;SDS011;25906;43.536;26.068;2023-05-07T05:33:10;6.03;;;2.42;;
40198;SDS011;25906;43.536;26.068;2023-05-07T05:35:55;4.32;;;1.75;;
40198;SDS011;25906;43.536;26.068;2023-05-07T05:38:40;5.45;;;2.13;;
40198;SDS011;25906;43.536;26.068;2023-05-07T05:41:26;4.35;;;2.25;;
40198;SDS011;25906;43.536;26.068;2023-05-07T05:44:12;2.58;;;1.83;;
40198;SDS011;25906;43.536;26.068;2023-05-07T05:46:57;5.63;;;2.00;;
40198;SDS011;25906;43.536;26.068;2023-05-07T05:49:44;4.00;;;2.30;;
40198;SDS011;25906;43.536;26.068;2023-05-07T05:52:29;4.50;;;2.83;;
40198;SDS011;25906;43.536;26.068;2023-05-07T05:55:15;7.80;;;2.70;;
40198;SDS011;25906;43.536;26.068;2023-05-07T05:58:00;3.35;;;2.00;;
40198;SDS011;25906;43.536;26.068;2023-05-07T06:00:46;3.72;;;1.88;;
40198;SDS011;25906;43.536;26.068;2023-05-07T06:03:33;6.57;;;2.33;;
40198;SDS011;25906;43.536;26.068;2023-05-07T06:06:18;3.75;;;1.83;;
40198;SDS011;25906;43.536;26.068;2023-05-07T06:09:04;3.80;;;2.10;;
40198;SDS011;25906;43.536;26.068;2023-05-07T06:11:49;6.72;;;2.92;;
40198;SDS011;25906;43.536;26.068;2023-05-07T06:14:35;4.72;;;2.47;;
40198;SDS011;25906;43.536;26.068;2023-05-07T06:17:20;3.17;;;2.10;;
40198;SDS011;25906;43.536;26.068;2023-05-07T06:20:06;3.33;;;1.92;;
40198;SDS011;25906;43.536;26.068;2023-05-07T06:22:52;2.13;;;1.55;;
40198;SDS011;25906;43.536;26.068;2023-05-07T06:25:37;2.58;;;2.03;;
40198;SDS011;25906;43.536;26.068;2023-05-07T06:28:22;8.27;;;2.03;;
40198;SDS011;25906;43.536;26.068;2023-05-07T06:31:12;5.90;;;2.35;;
40198;SDS011;25906;43.536;26.068;2023-05-07T06:33:57;2.17;;;1.80;;
40198;SDS011;25906;43.536;26.068;2023-05-07T06:36:44;3.47;;;1.80;;
40198;SDS011;25906;43.536;26.068;2023-05-07T06:39:29;5.07;;;1.90;;
40198;SDS011;25906;43.536;26.068;2023-05-07T06:42:14;6.80;;;1.85;;
40198;SDS011;25906;43.536;26.068;2023-05-07T06:45:00;3.25;;;2.00;;
40198;SDS011;25906;43.536;26.068;2023-05-07T06:47:46;4.85;;;2.28;;
40198;SDS011;25906;43.536;26.068;2023-05-07T06:50:31;3.13;;;2.20;;
40198;SDS011;25906;43.536;26.068;2023-05-07T06:53:16;3.10;;;2.50;;
40198;SDS011;25906;43.536;26.068;2023-05-07T06:56:02;3.13;;;2.20;;
40198;SDS011;25906;43.536;26.068;2023-05-07T06:58:47;4.40;;;2.00;;
40198;SDS011;25906;43.536;26.068;2023-05-07T07:01:32;2.85;;;1.80;;
40198;SDS011;25906;43.536;26.068;2023-05-07T07:04:18;6.28;;;2.15;;
40198;SDS011;25906;43.536;26.068;2023-05-07T07:07:03;3.72;;;2.22;;
40198;SDS011;25906;43.536;26.068;2023-05-07T07:09:49;3.72;;;2.53;;
40198;SDS011;25906;43.536;26.068;2023-05-07T07:12:34;3.58;;;1.98;;
40198;SDS011;25906;43.536;26.068;2023-05-07T07:15:20;10.07;;;2.50;;
40198;SDS011;25906;43.536;26.068;2023-05-07T07:18:09;3.25;;;2.08;;
40198;SDS011;25906;43.536;26.068;2023-05-07T07:20:55;5.82;;;2.35;;
40198;SDS011;25906;43.536;26.068;2023-05-07T07:23:41;2.28;;;2.08;;
40198;SDS011;25906;43.536;26.068;2023-05-07T07:26:26;4.78;;;1.65;;
40198;SDS011;25906;43.536;26.068;2023-05-07T07:29:11;4.10;;;2.38;;
40198;SDS011;25906;43.536;26.068;2023-05-07T07:31:57;3.13;;;1.92;;
40198;SDS011;25906;43.536;26.068;2023-05-07T07:34:42;2.38;;;1.75;;
40198;SDS011;25906;43.536;26.068;2023-05-07T07:37:28;8.23;;;2.30;;
40198;SDS011;25906;43.536;26.068;2023-05-07T07:40:13;3.65;;;2.05;;
40198;SDS011;25906;43.536;26.068;2023-05-07T07:42:59;3.67;;;1.95;;
40198;SDS011;25906;43.536;26.068;2023-05-07T07:45:46;6.72;;;2.20;;
40198;SDS011;25906;43.536;26.068;2023-05-07T07:48:31;3.15;;;2.10;;
40198;SDS011;25906;43.536;26.068;2023-05-07T07:51:17;4.05;;;1.95;;
40198;SDS011;25906;43.536;26.068;2023-05-07T07:54:02;3.42;;;1.90;;
40198;SDS011;25906;43.536;26.068;2023-05-07T07:56:48;2.72;;;2.00;;
40198;SDS011;25906;43.536;26.068;2023-05-07T07:59:33;5.00;;;1.80;;
40198;SDS011;25906;43.536;26.068;2023-05-07T08:02:18;4.47;;;1.80;;
40198;SDS011;25906;43.536;26.068;2023-05-07T08:05:04;6.43;;;1.92;;
40198;SDS011;25906;43.536;26.068;2023-05-07T08:07:49;10.85;;;1.92;;
40198;SDS011;25906;43.536;26.068;2023-05-07T08:10:38;3.25;;;1.75;;
40198;SDS011;25906;43.536;26.068;2023-05-07T08:16:09;6.25;;;1.83;;
40198;SDS011;25906;43.536;26.068;2023-05-07T08:18:55;4.57;;;1.95;;
40198;SDS011;25906;43.536;26.068;2023-05-07T08:21:40;9.82;;;1.90;;
40198;SDS011;25906;43.536;26.068;2023-05-07T08:24:25;8.38;;;1.60;;
40198;SDS011;25906;43.536;26.068;2023-05-07T08:27:11;3.00;;;1.63;;
40198;SDS011;25906;43.536;26.068;2023-05-07T08:29:56;6.22;;;1.83;;
40198;SDS011;25906;43.536;26.068;2023-05-07T08:32:42;4.13;;;2.00;;
40198;SDS011;25906;43.536;26.068;2023-05-07T08:35:27;5.75;;;1.92;;
40198;SDS011;25906;43.536;26.068;2023-05-07T08:38:13;3.00;;;1.77;;
40198;SDS011;25906;43.536;26.068;2023-05-07T08:40:58;3.78;;;1.80;;
40198;SDS011;25906;43.536;26.068;2023-05-07T08:43:46;4.45;;;2.08;;
40198;SDS011;25906;43.536;26.068;2023-05-07T08:46:33;2.83;;;1.88;;
40198;SDS011;25906;43.536;26.068;2023-05-07T08:49:19;3.80;;;1.70;;
40198;SDS011;25906;43.536;26.068;2023-05-07T08:52:05;3.83;;;1.80;;
40198;SDS011;25906;43.536;26.068;2023-05-07T08:54:51;4.15;;;1.60;;
40198;SDS011;25906;43.536;26.068;2023-05-07T08:57:36;4.55;;;1.77;;
40198;SDS011;25906;43.536;26.068;2023-05-07T09:00:21;1.58;;;1.48;;
40198;SDS011;25906;43.536;26.068;2023-05-07T09:03:07;3.63;;;1.65;;
40198;SDS011;25906;43.536;26.068;2023-05-07T09:05:52;6.40;;;1.63;;
40198;SDS011;25906;43.536;26.068;2023-05-07T09:08:38;3.00;;;1.55;;
40198;SDS011;25906;43.536;26.068;2023-05-07T09:11:23;9.02;;;2.08;;
40198;SDS011;25906;43.536;26.068;2023-05-07T09:14:09;8.82;;;1.83;;
40198;SDS011;25906;43.536;26.068;2023-05-07T09:16:55;5.28;;;1.80;;
40198;SDS011;25906;43.536;26.068;2023-05-07T09:19:41;5.32;;;1.98;;
40198;SDS011;25906;43.536;26.068;2023-05-07T09:22:31;7.97;;;2.03;;
40198;SDS011;25906;43.536;26.068;2023-05-07T09:25:17;2.90;;;2.13;;
40198;SDS011;25906;43.536;26.068;2023-05-07T09:28:13;8.68;;;1.70;;
40198;SDS011;25906;43.536;26.068;2023-05-07T09:30:58;5.53;;;1.58;;
40198;SDS011;25906;43.536;26.068;2023-05-07T09:33:44;4.03;;;2.17;;
40198;SDS011;25906;43.536;26.068;2023-05-07T09:36:31;3.40;;;1.80;;
40198;SDS011;25906;43.536;26.068;2023-05-07T09:39:17;3.25;;;1.67;;
40198;SDS011;25906;43.536;26.068;2023-05-07T09:42:02;8.23;;;1.63;;
40198;SDS011;25906;43.536;26.068;2023-05-07T09:44:47;6.15;;;1.73;;
40198;SDS011;25906;43.536;26.068;2023-05-07T09:47:33;5.55;;;1.40;;
40198;SDS011;25906;43.536;26.068;2023-05-07T09:50:25;3.65;;;1.58;;
40198;SDS011;25906;43.536;26.068;2023-05-07T09:53:13;7.18;;;1.50;;
40198;SDS011;25906;43.536;26.068;2023-05-07T09:55:59;6.47;;;1.60;;
40198;SDS011;25906;43.536;26.068;2023-05-07T09:58:46;4.38;;;1.58;;
40198;SDS011;25906;43.536;26.068;2023-05-07T10:01:32;3.08;;;1.42;;
40198;SDS011;25906;43.536;26.068;2023-05-07T10:04:20;3.10;;;1.90;;
40198;SDS011;25906;43.536;26.068;2023-05-07T10:07:06;2.78;;;1.65;;
40198;SDS011;25906;43.536;26.068;2023-05-07T10:09:53;2.67;;;1.40;;
40198;SDS011;25906;43.536;26.068;2023-05-07T10:12:40;4.65;;;1.80;;
40198;SDS011;25906;43.536;26.068;2023-05-07T10:15:25;4.38;;;1.63;;
40198;SDS011;25906;43.536;26.068;2023-05-07T10:18:12;2.38;;;1.70;;
40198;SDS011;25906;43.536;26.068;2023-05-07T10:21:04;4.95;;;1.90;;
40198;SDS011;25906;43.536;26.068;2023-05-07T10:23:55;2.53;;;1.70;;
40198;SDS011;25906;43.536;26.068;2023-05-07T10:26:45;2.40;;;1.50;;
40198;SDS011;25906;43.536;26.068;2023-05-07T10:29:58;2.22;;;1.45;;
40198;SDS011;25906;43.536;26.068;2023-05-07T10:32:53;7.63;;;2.35;;
40198;SDS011;25906;43.536;26.068;2023-05-07T10:35:42;2.03;;;1.55;;
40198;SDS011;25906;43.536;26.068;2023-05-07T10:38:29;4.35;;;1.70;;
40198;SDS011;25906;43.536;26.068;2023-05-07T10:44:03;8.68;;;2.95;;
40198;SDS011;25906;43.536;26.068;2023-05-07T10:47:03;2.13;;;1.85;;
40198;SDS011;25906;43.536;26.068;2023-05-07T10:52:35;2.58;;;1.63;;
40198;SDS011;25906;43.536;26.068;2023-05-07T10:55:21;2.35;;;1.52;;
40198;SDS011;25906;43.536;26.068;2023-05-07T10:58:23;3.83;;;1.50;;
40198;SDS011;25906;43.536;26.068;2023-05-07T11:01:14;2.30;;;1.45;;
40198;SDS011;25906;43.536;26.068;2023-05-07T11:04:14;2.45;;;1.70;;
40198;SDS011;25906;43.536;26.068;2023-05-07T11:07:10;2.97;;;1.42;;
40198;SDS011;25906;43.536;26.068;2023-05-07T11:10:00;2.50;;;1.52;;
40198;SDS011;25906;43.536;26.068;2023-05-07T11:12:49;2.78;;;1.70;;
40198;SDS011;25906;43.536;26.068;2023-05-07T11:15:36;6.30;;;1.55;;
40198;SDS011;25906;43.536;26.068;2023-05-07T11:18:23;2.42;;;1.45;;
40198;SDS011;25906;43.536;26.068;2023-05-07T11:21:08;2.78;;;1.60;;
40198;SDS011;25906;43.536;26.068;2023-05-07T11:23:55;3.85;;;1.52;;
40198;SDS011;25906;43.536;26.068;2023-05-07T11:26:49;6.30;;;2.08;;
40198;SDS011;25906;43.536;26.068;2023-05-07T11:29:35;2.20;;;1.70;;
40198;SDS011;25906;43.536;26.068;2023-05-07T11:32:24;6.03;;;1.70;;
40198;SDS011;25906;43.536;26.068;2023-05-07T11:35:11;2.05;;;1.58;;
40198;SDS011;25906;43.536;26.068;2023-05-07T11:37:58;4.22;;;1.73;;
40198;SDS011;25906;43.536;26.068;2023-05-07T11:40:49;5.43;;;1.80;;
40198;SDS011;25906;43.536;26.068;2023-05-07T11:43:38;3.10;;;1.77;;
40198;SDS011;25906;43.536;26.068;2023-05-07T11:46:38;6.80;;;1.73;;
40198;SDS011;25906;43.536;26.068;2023-05-07T11:49:28;2.03;;;1.55;;
40198;SDS011;25906;43.536;26.068;2023-05-07T11:52:15;2.95;;;1.80;;
40198;SDS011;25906;43.536;26.068;2023-05-07T11:55:02;3.08;;;1.60;;
40198;SDS011;25906;43.536;26.068;2023-05-07T11:57:49;2.75;;;1.42;;
40198;SDS011;25906;43.536;26.068;2023-05-07T12:00:34;7.03;;;1.80;;
40198;SDS011;25906;43.536;26.068;2023-05-07T12:03:20;5.32;;;1.73;;
40198;SDS011;25906;43.536;26.068;2023-05-07T12:08:51;2.83;;;1.58;;
40198;SDS011;25906;43.536;26.068;2023-05-07T12:11:38;5.00;;;1.58;;
40198;SDS011;25906;43.536;26.068;2023-05-07T12:14:27;2.20;;;1.67;;
40198;SDS011;25906;43.536;26.068;2023-05-07T12:17:13;4.00;;;2.13;;
40198;SDS011;25906;43.536;26.068;2023-05-07T12:19:59;2.60;;;1.70;;
40198;SDS011;25906;43.536;26.068;2023-05-07T12:22:45;2.15;;;1.60;;
40198;SDS011;25906;43.536;26.068;2023-05-07T12:25:35;6.65;;;1.83;;
40198;SDS011;25906;43.536;26.068;2023-05-07T12:28:22;3.90;;;1.77;;
40198;SDS011;25906;43.536;26.068;2023-05-07T12:31:11;1.65;;;1.55;;
40198;SDS011;25906;43.536;26.068;2023-05-07T12:34:05;5.40;;;1.60;;
40198;SDS011;25906;43.536;26.068;2023-05-07T12:36:50;1.63;;;1.52;;
40198;SDS011;25906;43.536;26.068;2023-05-07T12:39:36;2.33;;;1.70;;
40198;SDS011;25906;43.536;26.068;2023-05-07T12:42:21;2.08;;;1.52;;
40198;SDS011;25906;43.536;26.068;2023-05-07T12:45:11;2.03;;;1.50;;
40198;SDS011;25906;43.536;26.068;2023-05-07T12:48:01;4.07;;;1.60;;
40198;SDS011;25906;43.536;26.068;2023-05-07T12:50:51;4.18;;;1.48;;
40198;SDS011;25906;43.536;26.068;2023-05-07T12:53:42;2.63;;;1.85;;
40198;SDS011;25906;43.536;26.068;2023-05-07T12:56:30;3.25;;;1.70;;
40198;SDS011;25906;43.536;26.068;2023-05-07T12:59:16;3.47;;;1.88;;
40198;SDS011;25906;43.536;26.068;2023-05-07T13:02:02;6.90;;;2.00;;
40198;SDS011;25906;43.536;26.068;2023-05-07T13:04:48;5.60;;;1.80;;
40198;SDS011;25906;43.536;26.068;2023-05-07T13:07:35;2.90;;;1.70;;
40198;SDS011;25906;43.536;26.068;2023-05-07T13:10:25;4.22;;;1.63;;
40198;SDS011;25906;43.536;26.068;2023-05-07T13:13:12;2.88;;;1.40;;
40198;SDS011;25906;43.536;26.068;2023-05-07T13:15:57;4.13;;;1.83;;
40198;SDS011;25906;43.536;26.068;2023-05-07T13:18:43;7.75;;;1.90;;
40198;SDS011;25906;43.536;26.068;2023-05-07T13:21:30;1.75;;;1.45;;
40198;SDS011;25906;43.536;26.068;2023-05-07T13:24:18;6.35;;;1.80;;
40198;SDS011;25906;43.536;26.068;2023-05-07T13:27:04;6.55;;;2.33;;
40198;SDS011;25906;43.536;26.068;2023-05-07T13:29:50;9.60;;;2.78;;
40198;SDS011;25906;43.536;26.068;2023-05-07T13:32:35;16.40;;;3.97;;
40198;SDS011;25906;43.536;26.068;2023-05-07T13:35:21;3.03;;;1.63;;
40198;SDS011;25906;43.536;26.068;2023-05-07T13:38:06;3.50;;;1.52;;
40198;SDS011;25906;43.536;26.068;2023-05-07T13:40:52;2.15;;;1.70;;
40198;SDS011;25906;43.536;26.068;2023-05-07T13:43:37;2.78;;;1.40;;
40198;SDS011;25906;43.536;26.068;2023-05-07T13:46:23;5.63;;;1.85;;
40198;SDS011;25906;43.536;26.068;2023-05-07T13:49:08;6.95;;;1.63;;
40198;SDS011;25906;43.536;26.068;2023-05-07T13:51:56;2.40;;;1.73;;
40198;SDS011;25906;43.536;26.068;2023-05-07T13:54:41;2.28;;;1.50;;
40198;SDS011;25906;43.536;26.068;2023-05-07T13:57:27;4.10;;;1.55;;
40198;SDS011;25906;43.536;26.068;2023-05-07T14:00:15;4.28;;;2.08;;
40198;SDS011;25906;43.536;26.068;2023-05-07T14:03:01;2.25;;;1.50;;
40198;SDS011;25906;43.536;26.068;2023-05-07T14:05:47;2.88;;;1.83;;
40198;SDS011;25906;43.536;26.068;2023-05-07T14:08:32;3.75;;;1.67;;
40198;SDS011;25906;43.536;26.068;2023-05-07T14:11:17;1.75;;;1.65;;
40198;SDS011;25906;43.536;26.068;2023-05-07T14:14:03;2.47;;;1.60;;
40198;SDS011;25906;43.536;26.068;2023-05-07T14:16:48;4.43;;;1.73;;
40198;SDS011;25906;43.536;26.068;2023-05-07T14:19:34;5.30;;;1.70;;
40198;SDS011;25906;43.536;26.068;2023-05-07T14:22:20;4.28;;;1.50;;
40198;SDS011;25906;43.536;26.068;2023-05-07T14:25:07;2.65;;;1.67;;
40198;SDS011;25906;43.536;26.068;2023-05-07T14:27:54;4.00;;;1.92;;
40198;SDS011;25906;43.536;26.068;2023-05-07T14:30:39;4.05;;;1.90;;
40198;SDS011;25906;43.536;26.068;2023-05-07T14:33:25;7.47;;;1.90;;
40198;SDS011;25906;43.536;26.068;2023-05-07T14:36:10;2.08;;;1.88;;
40198;SDS011;25906;43.536;26.068;2023-05-07T14:38:55;2.38;;;1.67;;
40198;SDS011;25906;43.536;26.068;2023-05-07T14:41:44;3.15;;;1.95;;
40198;SDS011;25906;43.536;26.068;2023-05-07T14:44:29;5.93;;;2.00;;
40198;SDS011;25906;43.536;26.068;2023-05-07T14:47:16;2.10;;;1.70;;
40198;SDS011;25906;43.536;26.068;2023-05-07T14:50:01;4.82;;;1.75;;
40198;SDS011;25906;43.536;26.068;2023-05-07T14:52:47;5.47;;;1.70;;
40198;SDS011;25906;43.536;26.068;2023-05-07T14:55:33;5.03;;;1.80;;
40198;SDS011;25906;43.536;26.068;2023-05-07T14:58:19;3.10;;;1.30;;
40198;SDS011;25906;43.536;26.068;2023-05-07T15:01:04;2.60;;;1.63;;
40198;SDS011;25906;43.536;26.068;2023-05-07T15:03:50;4.18;;;1.50;;
40198;SDS011;25906;43.536;26.068;2023-05-07T15:06:35;3.92;;;1.70;;
40198;SDS011;25906;43.536;26.068;2023-05-07T15:09:21;2.63;;;1.77;;
40198;SDS011;25906;43.536;26.068;2023-05-07T15:12:06;5.32;;;1.92;;
40198;SDS011;25906;43.536;26.068;2023-05-07T15:17:37;3.40;;;1.92;;
40198;SDS011;25906;43.536;26.068;2023-05-07T15:20:23;2.28;;;1.80;;
40198;SDS011;25906;43.536;26.068;2023-05-07T15:23:08;3.13;;;1.95;;
40198;SDS011;25906;43.536;26.068;2023-05-07T15:25:58;4.53;;;2.10;;
40198;SDS011;25906;43.536;26.068;2023-05-07T15:28:44;5.10;;;1.77;;
40198;SDS011;25906;43.536;26.068;2023-05-07T15:34:16;3.07;;;1.70;;
40198;SDS011;25906;43.536;26.068;2023-05-07T15:37:01;1.77;;;1.55;;
40198;SDS011;25906;43.536;26.068;2023-05-07T15:42:33;2.60;;;1.70;;
40198;SDS011;25906;43.536;26.068;2023-05-07T15:45:18;4.40;;;1.88;;
40198;SDS011;25906;43.536;26.068;2023-05-07T15:48:04;4.03;;;1.70;;
40198;SDS011;25906;43.536;26.068;2023-05-07T15:50:49;3.78;;;1.80;;
40198;SDS011;25906;43.536;26.068;2023-05-07T15:53:34;2.67;;;1.98;;
40198;SDS011;25906;43.536;26.068;2023-05-07T15:56:21;4.43;;;1.80;;
40198;SDS011;25906;43.536;26.068;2023-05-07T15:59:06;2.53;;;1.50;;
40198;SDS011;25906;43.536;26.068;2023-05-07T16:01:52;3.08;;;2.00;;
40198;SDS011;25906;43.536;26.068;2023-05-07T16:04:37;5.50;;;1.70;;
40198;SDS011;25906;43.536;26.068;2023-05-07T16:07:23;2.80;;;2.10;;
40198;SDS011;25906;43.536;26.068;2023-05-07T16:10:14;4.10;;;1.60;;
40198;SDS011;25906;43.536;26.068;2023-05-07T16:13:00;2.30;;;1.55;;
40198;SDS011;25906;43.536;26.068;2023-05-07T16:15:46;3.72;;;1.77;;
40198;SDS011;25906;43.536;26.068;2023-05-07T16:18:32;4.97;;;1.70;;
40198;SDS011;25906;43.536;26.068;2023-05-07T16:21:17;2.78;;;2.03;;
40198;SDS011;25906;43.536;26.068;2023-05-07T16:24:03;4.00;;;2.00;;
40198;SDS011;25906;43.536;26.068;2023-05-07T16:26:48;2.65;;;1.98;;
40198;SDS011;25906;43.536;26.068;2023-05-07T16:29:34;3.75;;;1.98;;
40198;SDS011;25906;43.536;26.068;2023-05-07T16:32:19;5.25;;;2.03;;
40198;SDS011;25906;43.536;26.068;2023-05-07T16:35:05;4.22;;;1.80;;
40198;SDS011;25906;43.536;26.068;2023-05-07T16:37:51;3.92;;;1.90;;
40198;SDS011;25906;43.536;26.068;2023-05-07T16:43:23;3.22;;;1.70;;
40198;SDS011;25906;43.536;26.068;2023-05-07T16:46:08;3.83;;;1.60;;
40198;SDS011;25906;43.536;26.068;2023-05-07T16:48:53;4.00;;;1.85;;
40198;SDS011;25906;43.536;26.068;2023-05-07T16:51:39;7.53;;;2.65;;
40198;SDS011;25906;43.536;26.068;2023-05-07T16:54:27;3.92;;;2.00;;
40198;SDS011;25906;43.536;26.068;2023-05-07T16:57:12;3.10;;;1.83;;
40198;SDS011;25906;43.536;26.068;2023-05-07T16:59:58;4.30;;;1.70;;
40198;SDS011;25906;43.536;26.068;2023-05-07T17:02:43;3.13;;;1.83;;
40198;SDS011;25906;43.536;26.068;2023-05-07T17:05:30;3.78;;;2.15;;